Sarajevo, Bosnia and Herzegovina
Current Conditions -  °F | °C
As of 5:30 PM on Sunday 21 Dec 2014 (Local Time) from LQSA Reporting Station
Scattered Clouds Scattered Clouds  
Wind Chill: 41°   Ceiling: Unl
Heat Index: 41°   Visibility: 6mi
Dew Point: 27°   Wind: 2mph
Humidity: 57%   Direction: NA
Pressure: 30.42"   Gusts: NA
Location:  43.85°N, 18.38°E
Report Text: LQSA 211530Z VRB02KT 9999 SCT060 05/M03 Q1030 NOSIG
Loading
Personal Weather Stations






























Interactive Weather Map New forecast layout! Learn more

10-Day Weather Forecast

Advertisements
Track Severe Weather on mobile